Time,TemperatureF,DewpointF,PressureIn,WindDirection,WindDirectionDegrees,WindSpeedMPH,WindSpeedGustMPH,Humidity,HourlyPrecipIn,Conditions,Clouds,dailyrainin,SoftwareType,DateUTC
2013-03-06 19:00:00,33.1,21.9,30.24,North,0,0.0,0.0,63,0.00,,,0.00,WUHU216HW,2013-03-07 01:00:00,
2013-03-06 19:05:00,33.1,21.9,30.24,North,0,0.0,0.0,63,0.00,,,0.00,WUHU216HW,2013-03-07 01:05:00,
2013-03-06 19:30:00,32.0,21.6,30.23,North,0,0.0,0.0,65,0.00,,,0.00,WUHU216HW,2013-03-07 01:30:00,
2013-03-06 19:35:00,32.0,21.6,30.23,North,0,0.0,0.0,65,0.00,,,0.00,WUHU216HW,2013-03-07 01:35:00,
2013-03-06 19:59:00,31.3,21.2,30.23,North,0,0.0,0.0,66,0.00,,,0.00,WUHU216HW,2013-03-07 01:59:00,
2013-03-06 20:04:00,31.3,21.2,30.23,North,0,0.0,0.0,66,0.00,,,0.00,WUHU216HW,2013-03-07 02:04:00,
2013-03-06 20:30:00,30.8,21.1,30.23,North,0,0.0,0.0,67,0.00,,,0.00,WUHU216HW,2013-03-07 02:30:00,
2013-03-06 20:35:00,30.8,21.1,30.23,North,0,0.0,0.0,67,0.00,,,0.00,WUHU216HW,2013-03-07 02:35:00,
2013-03-06 21:00:00,29.9,20.9,30.23,North,0,0.0,0.0,69,0.00,,,0.00,WUHU216HW,2013-03-07 03:00:00,
2013-03-06 21:05:00,29.9,20.9,30.23,North,0,0.0,0.0,69,0.00,,,0.00,WUHU216HW,2013-03-07 03:05:00,
2013-03-06 21:30:00,29.3,21.1,30.22,North,0,0.0,0.0,71,0.00,,,0.00,WUHU216HW,2013-03-07 03:30:00,
2013-03-06 21:34:00,29.3,21.1,30.22,North,0,0.0,0.0,71,0.00,,,0.00,WUHU216HW,2013-03-07 03:34:00,
2013-03-06 22:00:00,28.4,20.6,30.23,North,0,0.0,0.0,72,0.00,,,0.00,WUHU216HW,2013-03-07 04:00:00,
2013-03-06 22:05:00,28.4,20.6,30.23,North,0,0.0,0.0,72,0.00,,,0.00,WUHU216HW,2013-03-07 04:05:00,
2013-03-06 22:30:00,28.3,20.7,30.23,North,0,0.0,0.0,73,0.00,,,0.00,WUHU216HW,2013-03-07 04:30:00,
2013-03-06 22:35:00,28.3,20.7,30.23,North,0,0.0,0.0,73,0.00,,,0.00,WUHU216HW,2013-03-07 04:35:00,
2013-03-06 23:00:00,27.9,20.3,30.22,North,0,0.0,0.0,73,0.00,,,0.00,WUHU216HW,2013-03-07 05:00:00,
2013-03-06 23:05:00,27.9,20.3,30.22,North,0,0.0,0.0,73,0.00,,,0.00,WUHU216HW,2013-03-07 05:05:00,
2013-03-06 23:30:00,27.4,19.8,30.22,North,0,0.0,0.0,73,0.00,,,0.00,WUHU216HW,2013-03-07 05:30:00,
2013-03-06 23:35:00,27.4,19.8,30.22,North,0,0.0,0.0,73,0.00,,,0.00,WUHU216HW,2013-03-07 05:35:00,
2013-03-06 23:59:00,27.2,20.0,30.22,North,0,0.0,0.0,74,0.00,,,0.00,WUHU216HW,2013-03-07 05:59:00,